Time;durP1;ratioP1;P1;durP2;ratioP2;P2;SDS_P1;SDS_P2;PMS_P1;PMS_P2;Temp;Humidity;BMP_temperature;BMP_pressure;BME280_temperature;BME280_humidity;BME280_pressure;Samples;Min_cycle;Max_cycle;Signal;HPM_P1;HPM_P2
2024/04/18 00:02:08;;;;;;;2.85;1.70;;;;;;;;;;5319882;26;20037;-66
2024/04/18 00:04:33;;;;;;;4.05;1.98;;;;;;;;;;5313032;26;19998;-66
2024/04/18 00:06:58;;;;;;;2.22;1.75;;;;;;;;;;5313113;27;19994;-66
2024/04/18 00:09:24;;;;;;;3.15;1.88;;;;;;;;;;5313459;26;20093;-66
2024/04/18 00:11:49;;;;;;;3.53;1.88;;;;;;;;;;5312664;26;19994;-66
2024/04/18 00:14:15;;;;;;;1.92;1.73;;;;;;;;;;5323436;26;19997;-66
2024/04/18 00:16:40;;;;;;;2.70;2.08;;;;;;;;;;5312020;26;20099;-66
2024/04/18 00:19:06;;;;;;;4.03;2.05;;;;;;;;;;5313897;26;20006;-66
2024/04/18 00:21:33;;;;;;;3.65;1.83;;;;;;;;;;5315982;26;20011;-67
2024/04/18 00:23:58;;;;;;;4.07;1.60;;;;;;;;;;5312661;26;20005;-66
2024/04/18 00:26:23;;;;;;;4.82;2.60;;;;;;;;;;5332236;26;19997;-66
2024/04/18 00:28:49;;;;;;;3.80;2.13;;;;;;;;;;5347268;26;20044;-66
2024/04/18 00:31:14;;;;;;;4.13;2.15;;;;;;;;;;5337785;26;20012;-66
2024/04/18 00:33:39;;;;;;;4.22;2.88;;;;;;;;;;5312969;27;20457;-66
2024/04/18 00:36:09;;;;;;;3.17;2.28;;;;;;;;;;5312449;26;20021;-66
2024/04/18 00:38:35;;;;;;;4.10;2.25;;;;;;;;;;5325811;26;20008;-66
2024/04/18 00:41:00;;;;;;;3.65;2.05;;;;;;;;;;5346977;26;20350;-66
2024/04/18 00:43:25;;;;;;;4.00;2.95;;;;;;;;;;5337347;26;20072;-66
2024/04/18 00:45:52;;;;;;;2.88;2.10;;;;;;;;;;5313888;26;20013;-66
2024/04/18 00:48:17;;;;;;;4.50;2.75;;;;;;;;;;5312027;26;20096;-66
2024/04/18 00:50:42;;;;;;;4.40;2.58;;;;;;;;;;5333966;26;19997;-66
2024/04/18 00:53:08;;;;;;;3.45;2.22;;;;;;;;;;5374380;26;20044;-65
2024/04/18 00:55:35;;;;;;;4.07;2.03;;;;;;;;;;5327035;26;19994;-66
2024/04/18 00:58:01;;;;;;;2.20;1.85;;;;;;;;;;5346579;26;19997;-66
2024/04/18 01:00:27;;;;;;;6.20;2.00;;;;;;;;;;5371148;26;20017;-66
2024/04/18 01:02:52;;;;;;;2.42;2.08;;;;;;;;;;5338840;26;20011;-66
2024/04/18 01:05:17;;;;;;;2.45;1.70;;;;;;;;;;5346083;26;19997;-66
2024/04/18 01:07:43;;;;;;;2.83;2.13;;;;;;;;;;5329362;26;19997;-66
2024/04/18 01:10:08;;;;;;;3.42;2.15;;;;;;;;;;5347182;26;19993;-66
2024/04/18 01:12:33;;;;;;;2.05;1.73;;;;;;;;;;5346997;26;20447;-66
2024/04/18 01:14:58;;;;;;;2.83;1.90;;;;;;;;;;5347078;26;20003;-66
2024/04/18 01:17:24;;;;;;;4.55;2.15;;;;;;;;;;5347018;26;20001;-66
2024/04/18 01:19:49;;;;;;;3.78;2.65;;;;;;;;;;5346994;26;19997;-66
2024/04/18 01:22:15;;;;;;;2.97;1.98;;;;;;;;;;5346874;26;19997;-66
2024/04/18 01:24:40;;;;;;;4.47;2.20;;;;;;;;;;5347040;26;19993;-66
2024/04/18 01:27:06;;;;;;;3.72;2.10;;;;;;;;;;5346640;26;19993;-66
2024/04/18 01:29:31;;;;;;;2.97;2.25;;;;;;;;;;5348720;26;19997;-66
2024/04/18 01:31:56;;;;;;;3.60;2.10;;;;;;;;;;5350272;26;20405;-66
2024/04/18 01:34:21;;;;;;;2.53;1.88;;;;;;;;;;5350085;26;19993;-66
2024/04/18 01:36:48;;;;;;;2.35;2.00;;;;;;;;;;5350036;26;20025;-66
2024/04/18 01:39:13;;;;;;;2.67;1.85;;;;;;;;;;5349965;26;20004;-66
2024/04/18 01:41:38;;;;;;;3.00;1.98;;;;;;;;;;5350076;26;20442;-66
2024/04/18 01:44:04;;;;;;;3.95;2.90;;;;;;;;;;5349999;26;20003;-66
2024/04/18 01:46:29;;;;;;;2.53;1.77;;;;;;;;;;5349868;26;20013;-66
2024/04/18 01:48:54;;;;;;;4.38;2.78;;;;;;;;;;5349917;26;20005;-66
2024/04/18 01:51:20;;;;;;;3.85;2.00;;;;;;;;;;5349610;26;19989;-66
2024/04/18 01:53:45;;;;;;;3.00;2.17;;;;;;;;;;5349812;26;20003;-66
2024/04/18 01:56:10;;;;;;;3.53;2.67;;;;;;;;;;5349605;26;20414;-66
2024/04/18 01:58:35;;;;;;;3.03;2.10;;;;;;;;;;5350032;26;20095;-66
2024/04/18 02:01:01;;;;;;;2.88;2.63;;;;;;;;;;5349838;26;20070;-66
2024/04/18 02:03:26;;;;;;;3.40;2.33;;;;;;;;;;5349693;26;19997;-66
2024/04/18 02:05:51;;;;;;;2.60;2.38;;;;;;;;;;5349736;26;20343;-66
2024/04/18 02:08:17;;;;;;;2.67;2.20;;;;;;;;;;5349650;26;19993;-66
2024/04/18 02:10:47;;;;;;;3.25;2.10;;;;;;;;;;5349608;26;20342;-66
2024/04/18 02:13:13;;;;;;;2.95;2.05;;;;;;;;;;5349588;26;20026;-66
2024/04/18 02:15:38;;;;;;;3.50;2.10;;;;;;;;;;5349513;26;20007;-66
2024/04/18 02:18:03;;;;;;;4.20;2.28;;;;;;;;;;5349520;26;20087;-66
2024/04/18 02:20:29;;;;;;;3.10;2.45;;;;;;;;;;5349445;26;20000;-66
2024/04/18 02:22:54;;;;;;;3.75;2.67;;;;;;;;;;5349536;26;20000;-66
2024/04/18 02:25:19;;;;;;;3.28;2.67;;;;;;;;;;5349385;26;20001;-66
2024/04/18 02:27:45;;;;;;;4.85;2.53;;;;;;;;;;5349456;26;20005;-66
2024/04/18 02:30:10;;;;;;;3.75;2.97;;;;;;;;;;5349320;26;19997;-66
2024/04/18 02:32:36;;;;;;;4.05;2.65;;;;;;;;;;5349254;26;20005;-66
2024/04/18 02:35:02;;;;;;;3.30;2.50;;;;;;;;;;5349186;26;20001;-66
2024/04/18 02:37:28;;;;;;;2.22;1.90;;;;;;;;;;5348426;26;20012;-64
2024/04/18 02:39:53;;;;;;;2.70;1.67;;;;;;;;;;5315934;26;20029;-66
2024/04/18 02:42:19;;;;;;;2.78;2.50;;;;;;;;;;5321712;26;20013;-66
2024/04/18 02:44:44;;;;;;;6.53;2.83;;;;;;;;;;5314430;27;20406;-66
2024/04/18 02:47:10;;;;;;;3.47;2.58;;;;;;;;;;5314019;26;20013;-66
2024/04/18 02:49:35;;;;;;;7.07;3.13;;;;;;;;;;5314324;27;20005;-66
2024/04/18 02:52:00;;;;;;;3.05;2.55;;;;;;;;;;5313937;26;20068;-66
2024/04/18 02:54:26;;;;;;;2.67;1.90;;;;;;;;;;5316658;26;20052;-66
2024/04/18 02:56:51;;;;;;;4.20;2.25;;;;;;;;;;5319915;26;20005;-66
2024/04/18 02:59:16;;;;;;;2.60;2.25;;;;;;;;;;5314325;26;20071;-66
2024/04/18 03:01:42;;;;;;;2.53;2.10;;;;;;;;;;5318189;26;20443;-66
2024/04/18 03:04:07;;;;;;;2.58;2.05;;;;;;;;;;5314102;26;20079;-66
2024/04/18 03:06:33;;;;;;;3.67;2.65;;;;;;;;;;5315375;26;20001;-66
2024/04/18 03:08:58;;;;;;;4.68;2.42;;;;;;;;;;5314484;27;20004;-66
2024/04/18 03:11:23;;;;;;;3.67;2.25;;;;;;;;;;5314130;27;20443;-66
2024/04/18 03:13:48;;;;;;;3.85;3.40;;;;;;;;;;5314361;27;19994;-66
2024/04/18 03:16:14;;;;;;;2.97;1.88;;;;;;;;;;5313919;26;20042;-66
2024/04/18 03:18:41;;;;;;;2.45;2.25;;;;;;;;;;5313860;26;20008;-66
2024/04/18 03:21:07;;;;;;;3.45;2.60;;;;;;;;;;5317790;26;20001;-66
2024/04/18 03:23:32;;;;;;;3.17;2.42;;;;;;;;;;5342798;26;19997;-66
2024/04/18 03:25:57;;;;;;;2.42;2.22;;;;;;;;;;5319282;26;20024;-66
2024/04/18 03:28:23;;;;;;;2.20;1.77;;;;;;;;;;5313911;27;20481;-66
2024/04/18 03:30:48;;;;;;;3.33;2.45;;;;;;;;;;5313347;27;20002;-66
2024/04/18 03:33:13;;;;;;;3.05;2.58;;;;;;;;;;5313321;27;20016;-66
2024/04/18 03:35:39;;;;;;;4.75;2.60;;;;;;;;;;5313264;27;19994;-66
2024/04/18 03:38:04;;;;;;;3.10;2.33;;;;;;;;;;5313265;26;20472;-66
2024/04/18 03:40:29;;;;;;;3.78;2.38;;;;;;;;;;5313916;27;20005;-66
2024/04/18 03:42:54;;;;;;;3.90;2.70;;;;;;;;;;5312772;27;20001;-66
2024/04/18 03:45:20;;;;;;;4.25;2.97;;;;;;;;;;5321305;26;20006;-66
2024/04/18 03:47:45;;;;;;;4.07;2.47;;;;;;;;;;5313156;27;20355;-66
2024/04/18 03:50:10;;;;;;;3.05;2.47;;;;;;;;;;5314342;26;20009;-66
2024/04/18 03:52:37;;;;;;;5.30;2.88;;;;;;;;;;5315923;26;20522;-66
2024/04/18 03:55:02;;;;;;;4.60;3.38;;;;;;;;;;5312710;26;20463;-66
2024/04/18 03:57:27;;;;;;;4.95;3.05;;;;;;;;;;5316659;26;20002;-66
2024/04/18 03:59:53;;;;;;;6.72;3.85;;;;;;;;;;5313304;27;20410;-66
2024/04/18 04:02:18;;;;;;;8.48;3.53;;;;;;;;;;5313595;27;20075;-66
2024/04/18 04:04:43;;;;;;;9.13;4.20;;;;;;;;;;5314008;26;20035;-66
2024/04/18 04:07:08;;;;;;;9.60;4.65;;;;;;;;;;5345587;26;20477;-66
2024/04/18 04:09:35;;;;;;;7.53;3.92;;;;;;;;;;5315708;26;20451;-66
2024/04/18 04:12:00;;;;;;;9.13;4.03;;;;;;;;;;5312573;26;20015;-66
2024/04/18 04:14:25;;;;;;;10.10;4.80;;;;;;;;;;5313505;26;20001;-66
2024/04/18 04:16:50;;;;;;;9.70;4.55;;;;;;;;;;5312295;27;19998;-65
2024/04/18 04:19:16;;;;;;;11.18;4.55;;;;;;;;;;5311837;26;20008;-65
2024/04/18 04:21:41;;;;;;;10.90;4.80;;;;;;;;;;5333405;26;19997;-66
2024/04/18 04:24:06;;;;;;;11.20;4.70;;;;;;;;;;5346482;26;19997;-66
2024/04/18 04:26:33;;;;;;;8.27;4.88;;;;;;;;;;5332956;26;20001;-66
2024/04/18 04:29:00;;;;;;;7.95;4.72;;;;;;;;;;5312386;26;20092;-66
2024/04/18 04:31:25;;;;;;;8.95;6.18;;;;;;;;;;5312067;26;19998;-66
2024/04/18 04:33:50;;;;;;;8.98;5.60;;;;;;;;;;5312587;27;19993;-67
2024/04/18 04:36:16;;;;;;;10.05;5.35;;;;;;;;;;5311670;27;19990;-66
2024/04/18 04:38:42;;;;;;;13.93;6.38;;;;;;;;;;5316414;26;20042;-66
2024/04/18 04:41:07;;;;;;;10.43;5.82;;;;;;;;;;5276490;27;20340;-66
2024/04/18 04:43:32;;;;;;;11.20;5.72;;;;;;;;;;5282453;26;20053;-66
2024/04/18 04:45:58;;;;;;;9.25;6.47;;;;;;;;;;5333275;26;20004;-66
2024/04/18 04:48:23;;;;;;;10.68;5.35;;;;;;;;;;5345980;26;20040;-66
2024/04/18 04:50:58;;;;;;;15.00;6.22;;;;;;;;;;5331313;26;20013;-66
2024/04/18 04:53:23;;;;;;;9.88;5.40;;;;;;;;;;5312092;26;20012;-66
2024/04/18 04:55:49;;;;;;;12.02;4.88;;;;;;;;;;5316414;26;20439;-66
2024/04/18 04:58:14;;;;;;;12.93;6.18;;;;;;;;;;5312285;27;19998;-66
2024/04/18 05:00:39;;;;;;;16.05;6.78;;;;;;;;;;5311450;27;20474;-66
2024/04/18 05:03:04;;;;;;;12.82;6.72;;;;;;;;;;5310767;26;19997;-66
2024/04/18 05:05:30;;;;;;;13.13;6.93;;;;;;;;;;5310916;26;20005;-66
2024/04/18 05:07:55;;;;;;;12.52;6.38;;;;;;;;;;5311687;26;20348;-66
2024/04/18 05:10:21;;;;;;;10.65;6.88;;;;;;;;;;5311432;27;20515;-66
2024/04/18 05:12:46;;;;;;;9.70;5.20;;;;;;;;;;5311189;27;20076;-66
2024/04/18 05:15:11;;;;;;;8.02;5.40;;;;;;;;;;5311821;27;20004;-66
2024/04/18 05:17:36;;;;;;;11.10;6.50;;;;;;;;;;5311354;27;20001;-66
2024/04/18 05:20:02;;;;;;;10.05;5.22;;;;;;;;;;5311420;27;20057;-66
2024/04/18 05:22:27;;;;;;;16.50;5.85;;;;;;;;;;5312389;26;20455;-66
2024/04/18 05:24:52;;;;;;;12.15;7.53;;;;;;;;;;5318721;26;20037;-66
2024/04/18 05:27:18;;;;;;;13.85;7.30;;;;;;;;;;5311770;26;20029;-66
2024/04/18 05:32:27;;;;;;;11.32;5.53;;;;;;;;;;5311890;27;20008;-67
2024/04/18 05:34:52;;;;;;;12.02;5.40;;;;;;;;;;5311042;27;20001;-66
2024/04/18 05:37:17;;;;;;;10.95;6.68;;;;;;;;;;5311347;27;19998;-66
2024/04/18 05:39:43;;;;;;;14.68;7.60;;;;;;;;;;5311669;27;19998;-66
2024/04/18 05:42:08;;;;;;;13.30;6.90;;;;;;;;;;5311096;27;20029;-66
2024/04/18 05:44:39;;;;;;;14.25;7.15;;;;;;;;;;5310817;27;20331;-66
2024/04/18 05:47:05;;;;;;;11.48;6.60;;;;;;;;;;5310926;27;20026;-66
2024/04/18 05:49:30;;;;;;;17.88;8.93;;;;;;;;;;5310838;27;20012;-66
2024/04/18 05:51:55;;;;;;;14.55;8.10;;;;;;;;;;5333261;26;20001;-66
2024/04/18 05:54:21;;;;;;;14.55;7.22;;;;;;;;;;5345251;26;20012;-66
2024/04/18 05:56:46;;;;;;;20.48;7.55;;;;;;;;;;5330734;26;19994;-66
2024/04/18 05:59:11;;;;;;;15.25;7.43;;;;;;;;;;5310823;26;19994;-66
2024/04/18 06:01:36;;;;;;;16.92;9.15;;;;;;;;;;5311107;27;20005;-66
2024/04/18 06:04:02;;;;;;;13.55;7.80;;;;;;;;;;5310472;26;19990;-66
2024/04/18 06:06:28;;;;;;;12.27;7.13;;;;;;;;;;5328333;26;20001;-66
2024/04/18 06:08:54;;;;;;;19.65;7.78;;;;;;;;;;5344751;26;20007;-66
2024/04/18 06:11:42;;;;;;;13.55;6.85;;;;;;;;;;5338068;26;20323;-66
2024/04/18 06:14:08;;;;;;;12.70;6.82;;;;;;;;;;5309303;26;20002;-66
2024/04/18 06:16:33;;;;;;;11.35;6.35;;;;;;;;;;5312867;26;20002;-66
2024/04/18 06:19:00;;;;;;;12.25;5.85;;;;;;;;;;5313348;26;19997;-65
2024/04/18 06:21:25;;;;;;;14.98;7.28;;;;;;;;;;5318415;26;20017;-66
2024/04/18 06:23:50;;;;;;;12.20;6.35;;;;;;;;;;5313498;27;20451;-66
2024/04/18 06:26:15;;;;;;;12.40;6.30;;;;;;;;;;5325128;26;20000;-66
2024/04/18 06:28:41;;;;;;;15.70;6.10;;;;;;;;;;5348286;26;20004;-66
2024/04/18 06:31:06;;;;;;;10.73;6.05;;;;;;;;;;5319269;26;20013;-66
2024/04/18 06:33:32;;;;;;;12.85;4.97;;;;;;;;;;5313682;27;20009;-66
2024/04/18 06:35:58;;;;;;;13.73;5.45;;;;;;;;;;5353525;21;20015;-69
2024/04/18 06:38:23;;;;;;;13.98;5.43;;;;;;;;;;5347954;26;20065;-68
2024/04/18 06:40:49;;;;;;;12.63;5.28;;;;;;;;;;5330173;26;20455;-69
2024/04/18 06:43:14;;;;;;;9.63;4.38;;;;;;;;;;5348154;26;19997;-69
2024/04/18 06:45:39;;;;;;;15.57;5.43;;;;;;;;;;5330811;26;20010;-69
2024/04/18 06:48:07;;;;;;;9.43;4.95;;;;;;;;;;5313761;26;20001;-69
2024/04/18 06:50:32;;;;;;;7.60;4.35;;;;;;;;;;5313545;26;20005;-69
2024/04/18 06:52:58;;;;;;;10.60;4.50;;;;;;;;;;5318141;26;20467;-69
2024/04/18 06:55:23;;;;;;;9.60;5.05;;;;;;;;;;5313558;26;20008;-69
2024/04/18 06:57:48;;;;;;;6.35;4.30;;;;;;;;;;5340410;26;20033;-69
2024/04/18 07:00:14;;;;;;;10.40;4.07;;;;;;;;;;5332983;26;20105;-69
2024/04/18 07:02:39;;;;;;;6.95;3.17;;;;;;;;;;5337028;26;20009;-69
2024/04/18 07:05:05;;;;;;;8.70;3.47;;;;;;;;;;5348041;26;20327;-69
2024/04/18 07:07:30;;;;;;;6.72;3.53;;;;;;;;;;5342558;26;20461;-69
2024/04/18 07:09:55;;;;;;;7.53;3.47;;;;;;;;;;5313763;27;20428;-69
2024/04/18 07:12:21;;;;;;;8.35;3.20;;;;;;;;;;5313079;26;19997;-69
2024/04/18 07:14:46;;;;;;;5.28;2.80;;;;;;;;;;5333518;26;20467;-69
2024/04/18 07:17:11;;;;;;;4.50;3.05;;;;;;;;;;5311441;27;20447;-69
2024/04/18 07:19:37;;;;;;;7.75;2.97;;;;;;;;;;5320967;26;20346;-69
2024/04/18 07:22:02;;;;;;;6.22;2.35;;;;;;;;;;5313174;27;20009;-69
2024/04/18 07:24:27;;;;;;;7.65;2.63;;;;;;;;;;5316151;26;20009;-69
2024/04/18 07:26:52;;;;;;;14.52;3.65;;;;;;;;;;5331854;26;19997;-69
2024/04/18 07:29:18;;;;;;;4.75;2.05;;;;;;;;;;5347059;26;20116;-68
2024/04/18 07:31:43;;;;;;;6.18;2.50;;;;;;;;;;5347054;26;20020;-69
2024/04/18 07:34:08;;;;;;;5.18;3.00;;;;;;;;;;5347461;26;20008;-69
2024/04/18 07:36:34;;;;;;;4.82;2.00;;;;;;;;;;5347233;26;20003;-69
2024/04/18 07:38:59;;;;;;;2.90;1.83;;;;;;;;;;5344835;26;19997;-69
2024/04/18 07:41:24;;;;;;;4.20;2.03;;;;;;;;;;5346579;26;20338;-69
2024/04/18 07:43:50;;;;;;;6.80;2.33;;;;;;;;;;5342375;26;20006;-68
2024/04/18 07:46:15;;;;;;;3.22;2.20;;;;;;;;;;5312944;27;20097;-68
2024/04/18 07:48:40;;;;;;;4.07;1.63;;;;;;;;;;5312224;27;20375;-69
2024/04/18 07:51:06;;;;;;;3.67;1.98;;;;;;;;;;5333598;26;20012;-69
2024/04/18 07:53:31;;;;;;;5.80;1.85;;;;;;;;;;5347084;26;20464;-69
2024/04/18 07:55:56;;;;;;;3.63;1.83;;;;;;;;;;5342821;26;20019;-69
2024/04/18 07:58:22;;;;;;;4.60;1.88;;;;;;;;;;5339499;26;19993;-69
2024/04/18 08:00:53;;;;;;;4.60;2.05;;;;;;;;;;5347123;26;20074;-69
2024/04/18 08:03:18;;;;;;;2.83;1.90;;;;;;;;;;5346963;26;20051;-66
2024/04/18 08:05:45;;;;;;;6.53;2.10;;;;;;;;;;5339669;26;20010;-67
2024/04/18 08:08:11;;;;;;;2.20;1.60;;;;;;;;;;5312185;26;20009;-67
2024/04/18 08:10:36;;;;;;;3.20;1.52;;;;;;;;;;5311961;26;22520;-66
2024/04/18 08:13:02;;;;;;;2.60;1.75;;;;;;;;;;5337897;26;20311;-67
2024/04/18 08:15:27;;;;;;;5.45;1.73;;;;;;;;;;5346341;26;20000;-66
2024/04/18 08:17:52;;;;;;;4.95;1.80;;;;;;;;;;5328268;26;20013;-67
2024/04/18 08:20:18;;;;;;;3.65;1.45;;;;;;;;;;5312038;27;19997;-69
2024/04/18 08:22:43;;;;;;;3.05;1.63;;;;;;;;;;5313441;26;20344;-69
2024/04/18 08:25:09;;;;;;;4.45;1.67;;;;;;;;;;5346892;26;20003;-69
2024/04/18 08:27:34;;;;;;;4.78;2.47;;;;;;;;;;5346207;26;19993;-69
2024/04/18 08:29:59;;;;;;;4.60;1.33;;;;;;;;;;5343343;26;20001;-69
2024/04/18 08:32:25;;;;;;;2.75;1.55;;;;;;;;;;5346260;26;19997;-69
2024/04/18 08:34:50;;;;;;;6.25;1.90;;;;;;;;;;5341331;26;20007;-69
2024/04/18 08:37:15;;;;;;;4.70;1.75;;;;;;;;;;5312602;26;19993;-69
2024/04/18 08:39:41;;;;;;;5.75;1.35;;;;;;;;;;5316409;26;20078;-69
2024/04/18 08:42:09;;;;;;;3.40;1.80;;;;;;;;;;5311790;27;20033;-67
2024/04/18 08:44:35;;;;;;;2.30;1.50;;;;;;;;;;5324567;26;19997;-67
2024/04/18 08:47:00;;;;;;;6.43;1.80;;;;;;;;;;5346473;26;20056;-67
2024/04/18 08:49:26;;;;;;;7.88;2.03;;;;;;;;;;5345977;26;20016;-67
2024/04/18 08:51:51;;;;;;;2.50;1.83;;;;;;;;;;5346435;26;20019;-67
2024/04/18 08:54:17;;;;;;;4.20;1.73;;;;;;;;;;5345615;26;19997;-69
2024/04/18 08:56:46;;;;;;;4.43;1.52;;;;;;;;;;5346266;26;20008;-69
2024/04/18 08:59:13;;;;;;;5.93;1.80;;;;;;;;;;5346239;26;20074;-69
2024/04/18 09:01:39;;;;;;;3.90;1.77;;;;;;;;;;5345789;26;20000;-68
2024/04/18 09:04:04;;;;;;;5.70;2.20;;;;;;;;;;5345006;26;20008;-69
2024/04/18 09:06:29;;;;;;;3.90;1.85;;;;;;;;;;5345478;26;20008;-69
2024/04/18 09:08:57;;;;;;;3.22;1.65;;;;;;;;;;5346068;26;20001;-69
2024/04/18 09:11:23;;;;;;;8.65;2.20;;;;;;;;;;5345845;26;20012;-69
2024/04/18 09:13:48;;;;;;;8.05;2.22;;;;;;;;;;5342792;26;20005;-69
2024/04/18 09:16:14;;;;;;;6.00;2.10;;;;;;;;;;5345906;26;19997;-69
2024/04/18 09:18:39;;;;;;;3.55;1.52;;;;;;;;;;5320133;26;19997;-69
2024/04/18 09:21:11;;;;;;;5.00;1.92;;;;;;;;;;5311278;26;19998;-68
2024/04/18 09:23:38;;;;;;;4.55;2.28;;;;;;;;;;5358762;26;19997;-68
2024/04/18 09:26:04;;;;;;;4.30;2.08;;;;;;;;;;5329018;26;20078;-68
2024/04/18 09:28:29;;;;;;;10.27;2.50;;;;;;;;;;5325448;26;20010;-68
2024/04/18 09:30:54;;;;;;;4.10;2.25;;;;;;;;;;5337550;26;20001;-68
2024/04/18 09:33:20;;;;;;;5.53;2.45;;;;;;;;;;5328145;26;20462;-69
2024/04/18 09:35:48;;;;;;;5.68;2.28;;;;;;;;;;5317240;26;19997;-69
2024/04/18 09:38:16;;;;;;;5.18;2.08;;;;;;;;;;5340549;26;20004;-69
2024/04/18 09:40:48;;;;;;;5.30;2.10;;;;;;;;;;5329645;26;20017;-69
2024/04/18 09:43:23;;;;;;;6.05;2.28;;;;;;;;;;5339156;26;19997;-68
2024/04/18 09:45:59;;;;;;;6.93;2.40;;;;;;;;;;5326991;26;19998;-69
2024/04/18 09:48:24;;;;;;;6.43;2.38;;;;;;;;;;5333855;26;20012;-69
2024/04/18 09:50:51;;;;;;;6.72;2.08;;;;;;;;;;5331535;26;20322;-69
2024/04/18 09:53:16;;;;;;;6.15;2.42;;;;;;;;;;5368497;26;20025;-68
2024/04/18 09:55:42;;;;;;;5.50;2.72;;;;;;;;;;5334142;26;20075;-67
2024/04/18 09:58:09;;;;;;;7.43;2.60;;;;;;;;;;5327150;26;19998;-68
2024/04/18 10:00:35;;;;;;;7.00;2.70;;;;;;;;;;5367257;26;20022;-68
2024/04/18 10:03:03;;;;;;;4.75;2.25;;;;;;;;;;5344366;26;20001;-69
2024/04/18 10:05:28;;;;;;;3.00;1.75;;;;;;;;;;5315718;26;20075;-68
2024/04/18 10:07:55;;;;;;;6.70;1.67;;;;;;;;;;5328042;26;20303;-68
2024/04/18 10:10:21;;;;;;;3.25;1.73;;;;;;;;;;5357296;26;19997;-68
2024/04/18 10:12:47;;;;;;;6.57;2.20;;;;;;;;;;5326517;26;20001;-69
2024/04/18 10:15:17;;;;;;;3.85;2.03;;;;;;;;;;5337751;26;20008;-68
2024/04/18 10:17:42;;;;;;;4.03;2.00;;;;;;;;;;5346965;26;20078;-69
2024/04/18 10:20:09;;;;;;;4.28;1.70;;;;;;;;;;5348457;26;20436;-69
2024/04/18 10:22:34;;;;;;;6.63;2.20;;;;;;;;;;5348830;26;20108;-69
2024/04/18 10:25:00;;;;;;;5.57;1.88;;;;;;;;;;5348675;26;20481;-68
2024/04/18 10:27:25;;;;;;;7.43;1.85;;;;;;;;;;5340846;26;20002;-69
2024/04/18 10:29:57;;;;;;;10.13;2.30;;;;;;;;;;5343993;26;20336;-68
2024/04/18 10:32:27;;;;;;;3.28;1.80;;;;;;;;;;5348440;26;19997;-69
2024/04/18 10:34:53;;;;;;;6.70;2.15;;;;;;;;;;5340599;26;19998;-69
2024/04/18 10:37:20;;;;;;;8.43;2.00;;;;;;;;;;5333061;26;20048;-69
2024/04/18 10:39:47;;;;;;;6.05;1.98;;;;;;;;;;5348234;26;20008;-69
2024/04/18 10:42:13;;;;;;;6.53;2.38;;;;;;;;;;5348474;26;20316;-68
2024/04/18 10:44:38;;;;;;;5.53;2.05;;;;;;;;;;5336229;26;20455;-69
2024/04/18 10:47:04;;;;;;;8.13;2.00;;;;;;;;;;5315259;26;19993;-69
2024/04/18 10:49:29;;;;;;;3.78;1.88;;;;;;;;;;5346203;26;20460;-68
2024/04/18 10:51:57;;;;;;;5.43;1.85;;;;;;;;;;5348037;26;19993;-68
2024/04/18 10:54:22;;;;;;;7.72;1.85;;;;;;;;;;5341628;26;20009;-68
2024/04/18 10:56:48;;;;;;;5.47;2.00;;;;;;;;;;5315270;26;19993;-68
2024/04/18 10:59:14;;;;;;;3.28;2.03;;;;;;;;;;5318845;26;19996;-68
2024/04/18 11:01:39;;;;;;;5.88;2.03;;;;;;;;;;5323315;26;20004;-68
2024/04/18 11:04:05;;;;;;;5.03;2.28;;;;;;;;;;5341240;26;20394;-68
2024/04/18 11:06:30;;;;;;;6.30;1.85;;;;;;;;;;5334599;26;84070;-68
2024/04/18 11:08:56;;;;;;;5.10;2.03;;;;;;;;;;5309198;26;20005;-68
2024/04/18 11:11:27;;;;;;;5.10;1.80;;;;;;;;;;5311092;26;20047;-68
2024/04/18 11:13:56;;;;;;;4.57;1.58;;;;;;;;;;5312690;26;20394;-68
2024/04/18 11:16:23;;;;;;;4.82;1.83;;;;;;;;;;5306505;27;20021;-68
2024/04/18 11:18:48;;;;;;;2.67;1.58;;;;;;;;;;5310203;26;20016;-67
2024/04/18 11:21:16;;;;;;;4.03;1.70;;;;;;;;;;5312131;27;20002;-68
2024/04/18 11:23:42;;;;;;;5.95;1.67;;;;;;;;;;5312405;27;20001;-68
2024/04/18 11:26:10;;;;;;;3.67;1.50;;;;;;;;;;5312126;26;20320;-68
2024/04/18 11:28:35;;;;;;;3.97;1.60;;;;;;;;;;5309540;26;20029;-68
2024/04/18 11:31:00;;;;;;;3.70;1.42;;;;;;;;;;5310604;27;20413;-68
2024/04/18 11:33:25;;;;;;;5.40;1.67;;;;;;;;;;5313181;26;19998;-68
2024/04/18 11:35:51;;;;;;;4.47;2.15;;;;;;;;;;5339330;26;20025;-68
2024/04/18 11:38:20;;;;;;;4.38;1.63;;;;;;;;;;5311848;26;20344;-68
2024/04/18 11:40:46;;;;;;;3.78;1.73;;;;;;;;;;5311832;27;20008;-68
2024/04/18 11:43:11;;;;;;;5.35;2.55;;;;;;;;;;5339653;26;19997;-68
2024/04/18 11:45:37;;;;;;;5.10;1.67;;;;;;;;;;5311452;27;19994;-68
2024/04/18 11:48:03;;;;;;;10.50;1.98;;;;;;;;;;5312574;26;20338;-68
2024/04/18 11:50:29;;;;;;;4.32;1.85;;;;;;;;;;5305268;27;20448;-67
2024/04/18 11:52:54;;;;;;;7.55;2.15;;;;;;;;;;5312750;26;20005;-68
2024/04/18 11:55:19;;;;;;;9.68;2.30;;;;;;;;;;5312637;26;20004;-68
2024/04/18 11:57:45;;;;;;;8.43;1.95;;;;;;;;;;5338562;26;19997;-68
2024/04/18 12:00:10;;;;;;;5.30;1.98;;;;;;;;;;5312711;27;20001;-69
2024/04/18 12:02:35;;;;;;;5.03;1.70;;;;;;;;;;5312663;26;20080;-68
2024/04/18 12:05:01;;;;;;;5.72;2.13;;;;;;;;;;5312169;27;20016;-68
2024/04/18 12:07:26;;;;;;;6.40;2.10;;;;;;;;;;5311487;27;20336;-68
2024/04/18 12:09:54;;;;;;;5.32;1.85;;;;;;;;;;5311981;26;20006;-68
2024/04/18 12:12:24;;;;;;;3.70;1.60;;;;;;;;;;5311746;26;19998;-68
2024/04/18 12:14:49;;;;;;;5.00;1.70;;;;;;;;;;5312521;26;20464;-68
2024/04/18 12:17:15;;;;;;;4.68;1.90;;;;;;;;;;5311731;27;20066;-69
2024/04/18 12:19:41;;;;;;;9.57;1.75;;;;;;;;;;5311407;26;19998;-69
2024/04/18 12:22:10;;;;;;;5.65;1.45;;;;;;;;;;5312040;26;20460;-68
2024/04/18 12:24:36;;;;;;;9.32;1.92;;;;;;;;;;5309303;27;20002;-68
2024/04/18 12:27:01;;;;;;;3.55;1.60;;;;;;;;;;5312293;26;19990;-68
2024/04/18 12:29:26;;;;;;;7.40;1.90;;;;;;;;;;5311746;27;19993;-68
2024/04/18 12:31:51;;;;;;;9.23;2.25;;;;;;;;;;5312172;26;19994;-68
2024/04/18 12:34:17;;;;;;;7.22;1.83;;;;;;;;;;5312380;27;20082;-68
2024/04/18 12:36:42;;;;;;;3.35;1.83;;;;;;;;;;5366063;21;20030;-67
2024/04/18 12:39:09;;;;;;;4.30;1.52;;;;;;;;;;5382271;26;20338;-66
2024/04/18 12:41:34;;;;;;;2.42;1.35;;;;;;;;;;5351298;26;20361;-66
2024/04/18 12:44:00;;;;;;;8.38;1.90;;;;;;;;;;5383053;26;19996;-67
2024/04/18 12:46:25;;;;;;;4.38;1.73;;;;;;;;;;5381209;26;20069;-66
2024/04/18 12:48:51;;;;;;;2.75;1.38;;;;;;;;;;5381673;26;20015;-67
2024/04/18 12:51:16;;;;;;;7.10;1.90;;;;;;;;;;5409807;26;19996;-66
2024/04/18 12:53:42;;;;;;;5.05;2.38;;;;;;;;;;5381144;26;20003;-66
2024/04/18 12:56:08;;;;;;;11.02;1.80;;;;;;;;;;5409559;26;20073;-66
2024/04/18 12:58:33;;;;;;;5.07;1.92;;;;;;;;;;5381323;26;20620;-66
2024/04/18 13:00:58;;;;;;;4.82;1.83;;;;;;;;;;5350651;26;20004;-66
2024/04/18 13:03:24;;;;;;;4.68;2.17;;;;;;;;;;5381676;26;20049;-66
2024/04/18 13:05:49;;;;;;;6.43;1.83;;;;;;;;;;5381024;26;19996;-66
2024/04/18 13:08:14;;;;;;;5.93;2.83;;;;;;;;;;5381544;26;20000;-66
2024/04/18 13:10:40;;;;;;;5.97;1.70;;;;;;;;;;5381242;26;20073;-66
2024/04/18 13:13:05;;;;;;;6.43;1.73;;;;;;;;;;5350319;26;19996;-66
2024/04/18 13:15:31;;;;;;;4.78;1.73;;;;;;;;;;5350820;26;20028;-66
2024/04/18 13:17:56;;;;;;;3.50;1.73;;;;;;;;;;5350037;26;19997;-66
2024/04/18 13:20:21;;;;;;;5.82;1.65;;;;;;;;;;5381954;26;20073;-66
2024/04/18 13:22:47;;;;;;;5.65;1.65;;;;;;;;;;5381113;26;20003;-66
2024/04/18 13:25:12;;;;;;;2.78;1.70;;;;;;;;;;5351683;26;20353;-66
2024/04/18 13:27:37;;;;;;;5.70;2.10;;;;;;;;;;5384358;26;20081;-66
2024/04/18 13:30:06;;;;;;;6.25;1.63;;;;;;;;;;5351815;26;20020;-66
2024/04/18 13:32:36;;;;;;;13.90;2.15;;;;;;;;;;5349453;26;19997;-66
2024/04/18 13:35:01;;;;;;;5.50;2.13;;;;;;;;;;5384088;26;20034;-66
2024/04/18 13:37:26;;;;;;;6.00;2.08;;;;;;;;;;5357429;26;19993;-67
2024/04/18 13:39:54;;;;;;;9.13;2.20;;;;;;;;;;5348967;26;19997;-66
2024/04/18 13:42:20;;;;;;;5.90;1.92;;;;;;;;;;5375454;26;20546;-67
2024/04/18 13:44:45;;;;;;;4.45;1.85;;;;;;;;;;5353169;26;20004;-66
2024/04/18 13:47:10;;;;;;;3.65;2.13;;;;;;;;;;5384418;26;20495;-66
2024/04/18 13:49:36;;;;;;;4.22;2.42;;;;;;;;;;5384482;26;19992;-66
2024/04/18 13:52:01;;;;;;;3.13;1.58;;;;;;;;;;5383720;26;20004;-66
2024/04/18 13:54:26;;;;;;;9.55;2.05;;;;;;;;;;5384638;26;20004;-66
2024/04/18 13:56:52;;;;;;;7.80;2.10;;;;;;;;;;5384123;26;20032;-66
2024/04/18 13:59:17;;;;;;;5.35;1.55;;;;;;;;;;5379203;26;19993;-66
2024/04/18 14:01:42;;;;;;;6.57;2.13;;;;;;;;;;5322436;26;20058;-66
2024/04/18 14:04:08;;;;;;;6.32;1.95;;;;;;;;;;5349525;26;19993;-66
2024/04/18 14:06:34;;;;;;;5.03;2.05;;;;;;;;;;5376840;26;20011;-66
2024/04/18 14:09:00;;;;;;;6.45;1.80;;;;;;;;;;5379551;26;19996;-66
2024/04/18 14:11:26;;;;;;;4.18;2.03;;;;;;;;;;5349907;26;20044;-66
2024/04/18 14:13:51;;;;;;;3.33;1.33;;;;;;;;;;5348867;26;19993;-66
2024/04/18 14:19:09;;;;;;;7.30;2.05;;;;;;;;;;5369466;26;20411;-66
2024/04/18 14:21:35;;;;;;;7.63;1.52;;;;;;;;;;5363681;26;20033;-66
2024/04/18 14:24:01;;;;;;;7.93;2.13;;;;;;;;;;5347466;26;20372;-66
2024/04/18 14:26:26;;;;;;;6.78;2.20;;;;;;;;;;5362097;26;20011;-66
2024/04/18 14:28:52;;;;;;;6.97;2.47;;;;;;;;;;5351385;26;19993;-66
2024/04/18 14:31:17;;;;;;;6.00;1.98;;;;;;;;;;5375924;26;19998;-67
2024/04/18 14:33:43;;;;;;;5.00;2.00;;;;;;;;;;5380001;26;20001;-67
2024/04/18 14:36:08;;;;;;;7.82;1.90;;;;;;;;;;5382915;26;20007;-66
2024/04/18 14:38:33;;;;;;;4.78;1.77;;;;;;;;;;5383821;26;20303;-66